Time;durP1;ratioP1;P1;durP2;ratioP2;P2;SDS_P1;SDS_P2;PMS_P1;PMS_P2;Temp;Humidity;BMP_temperature;BMP_pressure;BME280_temperature;BME280_humidity;BME280_pressure;Samples;Min_cycle;Max_cycle;Signal;HPM_P1;HPM_P2
2022/01/23 00:04:32;;;;;;;12.05;2.90;;;;;;;5.74;86.71;103717.31;4994036;28;97332;-36
2022/01/23 00:06:59;;;;;;;8.15;2.88;;;;;;;5.79;86.68;103709.22;4993854;28;106654;-36
2022/01/23 00:09:24;;;;;;;4.40;2.58;;;;;;;5.63;86.76;103691.25;4993008;28;96781;-36
2022/01/23 00:11:53;;;;;;;6.85;2.78;;;;;;;5.74;86.83;103711.00;4994041;28;97907;-36
2022/01/23 00:19:43;;;;;;;4.05;2.78;;;;;;;5.68;86.73;103706.50;4993081;28;96625;-36
2022/01/23 00:22:10;;;;;;;7.63;3.25;;;;;;;5.80;86.82;103724.50;4992598;28;100789;-36
2022/01/23 00:30:25;;;;;;;4.47;2.50;;;;;;;5.68;87.11;103695.75;4994478;28;96462;-36
2022/01/23 00:32:50;;;;;;;3.47;2.22;;;;;;;5.68;86.87;103698.44;4992469;28;99452;-36
2022/01/23 00:35:16;;;;;;;4.53;3.10;;;;;;;5.67;87.10;103685.91;4993815;28;97720;-37
2022/01/23 00:37:42;;;;;;;10.43;2.63;;;;;;;5.65;87.19;103694.81;4994377;28;96583;-36
2022/01/23 00:40:08;;;;;;;12.70;4.07;;;;;;;5.64;87.22;103690.34;4996667;28;96731;-37
2022/01/23 00:42:34;;;;;;;4.72;3.03;;;;;;;5.77;87.15;103710.13;4996843;28;100497;-36
2022/01/23 00:45:24;;;;;;;4.63;3.08;;;;;;;5.77;87.16;103713.72;4997590;28;97839;-36
2022/01/23 00:47:49;;;;;;;5.30;3.35;;;;;;;5.67;86.98;103695.72;4997321;28;96705;-36
2022/01/23 00:50:15;;;;;;;4.90;3.33;;;;;;;5.77;87.13;103707.44;4997304;28;96772;-37
2022/01/23 00:52:40;;;;;;;6.82;3.22;;;;;;;5.67;87.50;103693.03;4995720;28;124182;-36
2022/01/23 00:55:06;;;;;;;5.97;2.42;;;;;;;5.60;87.34;103670.63;4996177;28;124053;-36
2022/01/23 00:57:33;;;;;;;6.72;3.75;;;;;;;5.77;87.27;103696.66;4997016;28;96742;-37
2022/01/23 00:59:59;;;;;;;9.95;3.55;;;;;;;5.77;86.99;103684.16;4997100;28;96766;-37
2022/01/23 01:02:24;;;;;;;5.32;3.15;;;;;;;5.75;87.29;103688.63;4994385;28;100956;-37
2022/01/23 01:04:50;;;;;;;4.10;2.33;;;;;;;5.64;87.30;103661.66;4996857;28;97843;-36
2022/01/23 01:07:15;;;;;;;6.65;3.40;;;;;;;5.63;87.14;103667.06;4997094;28;99175;-37
2022/01/23 01:09:43;;;;;;;5.25;3.30;;;;;;;5.75;87.61;103684.13;4996083;28;96577;-36
2022/01/23 01:12:16;;;;;;;5.75;2.35;;;;;;;5.65;87.15;103662.56;4996662;28;97941;-36
2022/01/23 01:15:11;;;;;;;3.95;2.17;;;;;;;5.69;87.21;103669.75;4995271;28;100891;-36
2022/01/23 01:31:38;;;;;;;6.05;3.40;;;;;;;5.77;87.29;103704.75;4996356;28;96484;-36
2022/01/23 01:34:12;;;;;;;9.82;3.20;;;;;;;5.62;87.19;103678.69;4996463;28;97974;-36
2022/01/23 01:39:06;;;;;;;5.35;2.72;;;;;;;5.61;87.21;103680.47;4996603;28;96530;-37
2022/01/23 01:41:36;;;;;;;5.38;2.92;;;;;;;5.62;87.22;103686.75;4995171;28;96943;-36
2022/01/23 01:44:02;;;;;;;6.28;2.67;;;;;;;5.66;87.54;103705.59;4994301;28;101283;-37
2022/01/23 01:46:29;;;;;;;8.77;2.78;;;;;;;5.66;87.28;103702.91;4996035;28;97812;-37
2022/01/23 01:48:54;;;;;;;5.72;2.60;;;;;;;5.59;87.19;103684.94;4995018;28;96536;-36
2022/01/23 01:51:20;;;;;;;4.90;2.53;;;;;;;5.69;87.54;103710.97;4995534;28;96845;-37
2022/01/23 01:54:02;;;;;;;2.92;2.15;;;;;;;5.72;87.28;103710.09;4995776;28;99197;-36
2022/01/23 01:56:34;;;;;;;6.85;3.22;;;;;;;5.71;87.28;103708.31;4996091;28;97853;-37
2022/01/23 01:59:34;;;;;;;5.65;3.45;;;;;;;5.72;87.44;103711.03;4996053;28;98327;-36
2022/01/23 02:09:55;;;;;;;3.47;2.60;;;;;;;5.70;87.50;103710.09;4996204;28;96474;-36
2022/01/23 02:55:46;;;;;;;7.32;2.67;;;;;;;5.60;87.52;103670.63;4996006;28;96461;-36
2022/01/23 02:58:15;;;;;;;8.45;2.95;;;;;;;5.63;87.47;103670.63;4995053;28;98064;-37
2022/01/23 03:01:06;;;;;;;5.07;2.83;;;;;;;5.56;87.57;103655.38;4993547;28;101291;-36
2022/01/23 03:03:36;;;;;;;3.72;2.47;;;;;;;5.66;87.77;103678.72;4994844;28;96656;-37
2022/01/23 03:28:27;;;;;;;4.95;2.88;;;;;;;5.48;87.75;103649.97;4995252;28;96710;-36
2022/01/23 03:33:36;;;;;;;3.53;2.53;;;;;;;5.58;87.37;103668.78;4993078;28;97734;-36
2022/01/23 03:36:03;;;;;;;5.93;2.85;;;;;;;5.53;87.38;103667.00;4993416;28;96619;-37
2022/01/23 03:38:28;;;;;;;6.15;2.75;;;;;;;5.50;87.60;103658.00;4993418;28;96801;-36
2022/01/23 03:40:54;;;;;;;5.70;3.22;;;;;;;5.63;87.67;103680.50;4994301;28;98096;-36
2022/01/23 03:43:26;;;;;;;8.50;3.10;;;;;;;5.65;87.50;103681.38;4994488;28;97733;-36
2022/01/23 03:46:22;;;;;;;4.55;3.35;;;;;;;5.49;87.96;103665.19;4994991;28;96481;-36
2022/01/23 03:51:13;;;;;;;4.93;3.07;;;;;;;5.58;87.95;103680.47;4994135;28;97941;-37
2022/01/23 03:53:39;;;;;;;4.45;2.58;;;;;;;5.63;87.91;103693.94;4992917;28;100755;-36
2022/01/23 03:56:05;;;;;;;3.90;2.78;;;;;;;5.62;87.91;103689.44;4992738;28;97013;-37
2022/01/23 03:58:30;;;;;;;4.97;2.47;;;;;;;5.60;87.72;103683.16;4993015;28;96782;-37
2022/01/23 04:00:56;;;;;;;6.65;2.47;;;;;;;5.62;87.89;103694.81;4993561;28;97845;-36
2022/01/23 04:03:28;;;;;;;3.20;2.33;;;;;;;5.59;87.71;103687.63;4992605;28;101501;-36
2022/01/23 04:05:53;;;;;;;3.58;2.53;;;;;;;5.42;87.60;103671.41;4992935;28;96690;-36
2022/01/23 04:08:20;;;;;;;4.03;2.55;;;;;;;5.54;88.43;103692.97;4994667;28;96830;-36
2022/01/23 04:10:46;;;;;;;6.10;2.60;;;;;;;5.58;87.98;103701.97;4992632;28;100970;-37
2022/01/23 04:13:34;;;;;;;4.60;2.88;;;;;;;5.50;87.84;103685.78;4994588;28;97901;-36
2022/01/23 04:16:34;;;;;;;5.18;2.13;;;;;;;5.61;88.14;103707.38;4996575;28;96518;-36
2022/01/23 04:46:47;;;;;;;5.57;2.97;;;;;;;5.54;88.05;103703.75;4997531;28;96976;-36
2022/01/23 04:59:53;;;;;;;5.85;2.90;;;;;;;5.54;88.19;103717.19;4997237;28;97207;-36
2022/01/23 05:04:56;;;;;;;4.93;3.08;;;;;;;5.44;88.11;103693.84;4995101;28;97829;-36
2022/01/23 05:07:26;;;;;;;5.82;2.60;;;;;;;5.43;88.18;103681.25;4997177;28;97781;-36
2022/01/23 05:09:52;;;;;;;5.20;3.17;;;;;;;5.47;88.26;103692.94;4997379;28;96544;-36
2022/01/23 05:12:17;;;;;;;4.82;2.58;;;;;;;5.49;87.99;103685.78;4997269;28;96784;-37
2022/01/23 05:14:45;;;;;;;5.00;2.92;;;;;;;5.59;88.30;103701.06;4994843;28;100766;-36
2022/01/23 05:17:14;;;;;;;3.55;2.35;;;;;;;5.57;87.96;103699.28;4996722;28;97837;-36
2022/01/23 05:19:40;;;;;;;7.80;3.85;;;;;;;5.47;88.00;103687.56;4995565;28;96534;-36
2022/01/23 05:24:37;;;;;;;9.55;2.60;;;;;;;5.56;87.88;103706.44;4996352;28;98273;-37
2022/01/23 05:27:06;;;;;;;6.18;2.67;;;;;;;5.45;87.84;103695.63;4994004;28;100979;-37
2022/01/23 05:29:32;;;;;;;9.43;3.08;;;;;;;5.45;88.27;103690.25;4995281;28;96780;-36
2022/01/23 05:31:57;;;;;;;4.45;2.90;;;;;;;5.56;88.84;103708.25;4995692;28;96524;-36
2022/01/23 05:34:23;;;;;;;4.13;2.75;;;;;;;5.53;88.25;103710.03;4995911;28;116717;-37
2022/01/23 05:36:50;;;;;;;5.53;2.65;;;;;;;5.53;88.10;103704.66;4996333;28;97811;-37
2022/01/23 05:39:18;;;;;;;6.60;2.78;;;;;;;5.45;88.04;103695.63;4994724;28;96722;-36
2022/01/23 05:41:44;;;;;;;4.03;2.55;;;;;;;5.45;87.97;103683.97;4994847;28;96980;-36
2022/01/23 05:44:09;;;;;;;6.10;2.63;;;;;;;5.54;88.05;103701.03;4996319;28;97834;-36
2022/01/23 05:46:34;;;;;;;7.72;3.63;;;;;;;5.38;88.05;103674.97;4996354;28;97768;-37
2022/01/23 05:49:00;;;;;;;4.55;2.85;;;;;;;5.46;88.27;103685.78;4995785;28;108399;-36
2022/01/23 05:51:26;;;;;;;5.95;2.67;;;;;;;5.57;88.15;103707.34;4996555;28;96736;-36
2022/01/23 05:53:51;;;;;;;4.45;2.03;;;;;;;5.56;88.32;103711.81;4996186;28;97941;-37
2022/01/23 05:56:16;;;;;;;5.78;3.35;;;;;;;5.53;88.03;103696.56;4996422;28;97781;-37
2022/01/23 05:58:43;;;;;;;4.45;2.90;;;;;;;5.37;88.25;103670.50;4995840;28;96657;-37
2022/01/23 06:01:08;;;;;;;9.13;3.63;;;;;;;5.38;88.21;103666.91;4994258;28;96879;-37
2022/01/23 06:03:33;;;;;;;12.75;3.28;;;;;;;5.51;88.45;103700.16;4995960;28;97355;-36
2022/01/23 06:05:59;;;;;;;3.63;2.33;;;;;;;5.40;88.61;103681.25;4995271;28;113529;-36
2022/01/23 06:08:25;;;;;;;5.30;3.17;;;;;;;5.50;88.34;103699.22;4996461;28;96816;-37
2022/01/23 06:10:55;;;;;;;12.02;3.90;;;;;;;5.37;88.57;103673.19;4996003;28;96706;-37
2022/01/23 06:13:22;;;;;;;7.35;2.85;;;;;;;5.48;88.64;103706.41;4995598;28;98766;-36
2022/01/23 06:15:47;;;;;;;5.38;2.90;;;;;;;5.40;88.75;103689.31;4994248;28;99988;-37
2022/01/23 06:18:13;;;;;;;6.10;3.75;;;;;;;5.49;88.70;103699.25;4996198;28;96564;-37
2022/01/23 06:20:38;;;;;;;6.95;3.55;;;;;;;5.48;89.03;103705.50;4996332;28;96764;-36
2022/01/23 06:23:03;;;;;;;7.03;3.30;;;;;;;5.38;89.11;103688.41;4995598;28;104621;-37
2022/01/23 06:25:33;;;;;;;6.32;3.22;;;;;;;5.48;89.02;103700.09;4995725;28;97757;-36
2022/01/23 06:27:59;;;;;;;6.22;3.45;;;;;;;5.44;88.51;103692.94;4994088;28;96650;-37
2022/01/23 06:30:25;;;;;;;8.40;4.35;;;;;;;5.50;88.83;103712.66;4994386;28;96878;-37
2022/01/23 06:32:50;;;;;;;10.38;3.38;;;;;;;5.51;88.97;103705.53;4995725;28;97433;-36
2022/01/23 06:35:16;;;;;;;5.68;3.60;;;;;;;5.56;88.55;103710.94;4995638;28;97808;-37
2022/01/23 06:37:41;;;;;;;4.93;3.10;;;;;;;5.57;88.45;103715.41;4993822;28;96580;-37
2022/01/23 06:40:07;;;;;;;4.55;2.88;;;;;;;5.47;88.65;103696.53;4994944;28;109001;-36
2022/01/23 06:42:32;;;;;;;7.35;3.92;;;;;;;5.54;88.47;103714.50;4995193;28;97797;-37
2022/01/23 06:44:58;;;;;;;5.38;3.13;;;;;;;5.49;88.53;103708.19;4995495;28;105489;-36
2022/01/23 06:47:24;;;;;;;6.65;3.35;;;;;;;5.52;88.70;103710.00;4995388;28;96667;-36
2022/01/23 06:49:50;;;;;;;7.03;4.22;;;;;;;5.54;88.35;103717.19;4994131;28;96794;-37
2022/01/23 06:52:15;;;;;;;6.03;3.20;;;;;;;5.58;88.55;103725.25;4993561;28;122120;-37
2022/01/23 06:54:43;;;;;;;3.58;2.53;;;;;;;5.58;88.47;103722.56;4994203;28;118988;-37
2022/01/23 06:57:09;;;;;;;3.55;2.22;;;;;;;5.46;88.55;103707.28;4995492;28;96597;-37
2022/01/23 06:59:34;;;;;;;8.93;3.40;;;;;;;5.49;88.29;103718.06;4995114;28;96878;-36
2022/01/23 07:01:59;;;;;;;8.48;4.78;;;;;;;5.57;88.58;103726.16;4994057;28;99256;-36
2022/01/23 07:04:25;;;;;;;6.28;2.90;;;;;;;5.51;88.31;103722.53;4995398;28;97235;-37
2022/01/23 07:06:51;;;;;;;8.20;4.68;;;;;;;5.53;88.32;103727.94;4995298;28;96496;-37
2022/01/23 07:09:17;;;;;;;9.20;3.75;;;;;;;5.54;88.32;103732.41;4995630;28;96645;-37
2022/01/23 07:11:43;;;;;;;4.97;3.25;;;;;;;5.47;88.67;103725.22;4993359;28;100892;-37
2022/01/23 07:14:08;;;;;;;9.95;3.42;;;;;;;5.57;88.32;103731.53;4994910;28;97902;-36
2022/01/23 07:16:33;;;;;;;5.88;2.90;;;;;;;5.47;88.39;103720.72;4993857;28;113010;-37
2022/01/23 07:18:59;;;;;;;6.13;3.53;;;;;;;5.57;88.69;103739.59;4993726;28;96829;-36
2022/01/23 07:21:24;;;;;;;8.57;4.78;;;;;;;5.55;88.11;103739.59;4994771;28;100372;-37
2022/01/23 07:23:51;;;;;;;7.72;3.78;;;;;;;5.51;88.30;103733.31;4994605;28;97756;-37
2022/01/23 07:26:19;;;;;;;7.25;4.25;;;;;;;5.41;88.97;103726.06;4993562;28;96624;-36
2022/01/23 07:28:46;;;;;;;7.15;3.20;;;;;;;5.48;88.57;103733.28;4995081;28;96727;-36
2022/01/23 07:31:20;;;;;;;6.55;3.17;;;;;;;5.49;88.68;103729.69;4993422;28;98124;-36
2022/01/23 07:33:51;;;;;;;10.80;4.00;;;;;;;5.53;88.85;103753.03;4993489;28;101244;-37
2022/01/23 07:36:16;;;;;;;11.60;5.38;;;;;;;5.50;89.06;103752.09;4993862;28;112141;-37
2022/01/23 07:38:42;;;;;;;13.38;5.07;;;;;;;5.45;88.96;103745.78;4994536;28;100776;-36
2022/01/23 07:41:07;;;;;;;13.85;5.65;;;;;;;5.35;89.17;103746.63;4994483;28;99678;-37
2022/01/23 07:43:32;;;;;;;11.95;5.65;;;;;;;5.38;89.18;103757.41;4993783;28;120060;-36
2022/01/23 07:45:57;;;;;;;11.43;4.78;;;;;;;5.44;89.26;103763.72;4995001;28;96568;-37
2022/01/23 07:48:24;;;;;;;10.82;4.20;;;;;;;5.37;89.25;103755.63;4993967;28;115947;-36
2022/01/23 07:50:49;;;;;;;5.88;3.53;;;;;;;5.46;89.10;103769.13;4996736;28;126558;-36
2022/01/23 07:53:14;;;;;;;6.07;3.45;;;;;;;5.31;89.36;103757.38;4997159;28;127343;-36
2022/01/23 07:55:40;;;;;;;6.22;3.67;;;;;;;5.34;89.30;103759.19;4998554;28;96672;-36
2022/01/23 07:58:12;;;;;;;8.63;4.30;;;;;;;5.48;88.90;103779.00;4998383;28;96786;-37
2022/01/23 08:00:38;;;;;;;7.20;4.00;;;;;;;5.38;88.80;103752.91;4997912;28;97879;-37
2022/01/23 08:03:04;;;;;;;7.85;4.15;;;;;;;5.54;89.20;103786.19;4997182;28;102463;-36
2022/01/23 08:05:29;;;;;;;11.00;4.00;;;;;;;5.43;89.14;103755.63;4997812;28;96654;-36
2022/01/23 08:07:54;;;;;;;10.73;3.88;;;;;;;5.56;88.75;103779.03;4997577;28;102699;-37
2022/01/23 08:10:20;;;;;;;7.15;4.03;;;;;;;5.45;88.99;103762.81;4997373;28;98829;-36
2022/01/23 08:12:45;;;;;;;6.43;4.38;;;;;;;5.45;89.08;103760.13;4996294;28;99138;-36
2022/01/23 08:15:16;;;;;;;10.02;5.03;;;;;;;5.48;88.88;103773.63;4996991;28;117009;-36
2022/01/23 08:17:42;;;;;;;9.43;3.67;;;;;;;5.57;89.12;103783.50;4997658;28;96756;-37
2022/01/23 08:20:08;;;;;;;6.20;3.33;;;;;;;5.47;88.40;103771.81;4997313;28;97926;-37
2022/01/23 08:22:33;;;;;;;7.60;3.92;;;;;;;5.58;88.59;103788.03;4996356;28;100435;-37
2022/01/23 08:25:01;;;;;;;8.02;4.32;;;;;;;5.56;88.45;103783.53;4997587;28;96519;-37
2022/01/23 08:27:28;;;;;;;9.40;4.28;;;;;;;5.58;88.91;103787.09;4997632;28;96775;-36
2022/01/23 08:29:54;;;;;;;9.20;5.00;;;;;;;5.61;88.80;103789.81;4995343;28;100937;-37
2022/01/23 08:32:19;;;;;;;13.05;4.32;;;;;;;5.48;88.73;103770.94;4995753;28;99937;-37
2022/01/23 08:34:45;;;;;;;8.77;4.85;;;;;;;5.47;88.68;103771.81;4996467;28;96510;-36
2022/01/23 08:37:11;;;;;;;9.25;4.95;;;;;;;5.41;88.50;103754.72;4997116;28;101944;-37
2022/01/23 08:39:38;;;;;;;7.43;3.97;;;;;;;5.61;88.89;103795.22;4997348;28;97891;-37
2022/01/23 08:42:07;;;;;;;6.95;3.53;;;;;;;5.62;88.43;103794.31;4995791;28;100180;-37
2022/01/23 08:44:33;;;;;;;6.45;3.70;;;;;;;5.46;88.94;103766.44;4996083;28;96558;-37
2022/01/23 08:46:59;;;;;;;9.20;4.28;;;;;;;5.63;88.92;103798.81;4997510;28;96806;-37
2022/01/23 08:49:26;;;;;;;6.63;3.80;;;;;;;5.51;88.82;103767.34;4995700;28;100828;-36
2022/01/23 08:51:54;;;;;;;8.30;5.20;;;;;;;5.53;88.85;103776.34;4995592;28;100512;-37
2022/01/23 08:54:19;;;;;;;10.57;4.75;;;;;;;5.64;88.54;103797.91;4995433;28;97254;-36
2022/01/23 08:56:44;;;;;;;9.57;3.33;;;;;;;5.64;88.73;103796.09;4995902;28;96782;-36
2022/01/23 08:59:10;;;;;;;8.70;4.07;;;;;;;5.47;88.60;103768.22;4996960;28;97196;-37
2022/01/23 09:01:36;;;;;;;10.60;5.47;;;;;;;5.63;89.02;103799.69;4995986;28;97811;-37
2022/01/23 09:04:06;;;;;;;9.60;4.85;;;;;;;5.67;88.50;103800.59;4997347;28;96547;-37
2022/01/23 09:06:32;;;;;;;8.20;4.05;;;;;;;5.57;88.49;103778.13;4995725;28;96782;-37
2022/01/23 09:08:59;;;;;;;11.43;4.22;;;;;;;5.74;88.60;103805.13;4995279;28;100948;-37
2022/01/23 09:11:28;;;;;;;6.78;3.90;;;;;;;5.62;88.70;103781.75;4995491;28;100742;-37
2022/01/23 09:16:20;;;;;;;16.70;5.85;;;;;;;5.64;88.73;103781.78;4996935;28;96749;-36
2022/01/23 09:18:46;;;;;;;9.85;5.15;;;;;;;5.72;88.47;103793.47;4996222;28;100322;-37
2022/01/23 09:21:11;;;;;;;6.47;3.15;;;;;;;5.67;88.75;103781.78;4995013;28;99801;-36
2022/01/23 09:23:36;;;;;;;7.72;4.20;;;;;;;5.74;88.91;103805.13;4997045;28;96576;-36
2022/01/23 09:26:13;;;;;;;13.10;4.60;;;;;;;5.75;89.05;103806.94;4996902;28;96676;-36
2022/01/23 09:28:40;;;;;;;9.50;3.88;;;;;;;5.74;88.63;103808.75;4996456;28;97911;-36
2022/01/23 09:31:06;;;;;;;10.57;4.55;;;;;;;5.77;88.60;103809.63;4996334;28;97820;-36
2022/01/23 09:33:31;;;;;;;8.80;4.25;;;;;;;5.66;88.67;103788.06;4996815;28;96479;-36
2022/01/23 09:35:57;;;;;;;11.63;4.47;;;;;;;5.84;88.53;103817.78;4997173;28;96796;-36
2022/01/23 09:38:22;;;;;;;8.63;4.72;;;;;;;5.73;88.32;103804.25;4996460;28;97344;-37
2022/01/23 09:40:50;;;;;;;10.43;4.90;;;;;;;5.85;88.72;103822.25;4994697;28;101356;-36
2022/01/23 09:43:19;;;;;;;8.38;4.50;;;;;;;5.83;88.52;103812.38;4994322;28;96667;-37
2022/01/23 09:45:46;;;;;;;7.68;4.05;;;;;;;5.75;88.63;103798.88;4995023;28;96795;-37
2022/01/23 09:48:11;;;;;;;14.10;5.75;;;;;;;5.75;88.47;103794.41;4994641;28;100780;-37
2022/01/23 09:50:37;;;;;;;16.70;5.60;;;;;;;5.78;88.44;103803.38;4995870;28;97748;-36
2022/01/23 09:53:04;;;;;;;10.82;3.97;;;;;;;5.75;88.56;103802.47;4996294;28;96532;-36
2022/01/23 09:55:30;;;;;;;10.10;4.32;;;;;;;5.76;88.38;103803.34;4994876;28;96798;-36
2022/01/23 09:57:56;;;;;;;8.05;3.78;;;;;;;5.88;88.41;103822.25;4994177;28;100941;-37
2022/01/23 10:00:29;;;;;;;12.43;5.35;;;;;;;5.82;88.39;103807.91;4994773;28;99162;-37
2022/01/23 10:02:56;;;;;;;11.77;4.78;;;;;;;5.95;88.55;103826.81;4992654;28;96674;-36
2022/01/23 10:05:22;;;;;;;10.60;5.30;;;;;;;6.00;88.57;103839.41;4994794;28;96782;-36
2022/01/23 10:07:48;;;;;;;11.32;4.43;;;;;;;5.97;88.26;103828.63;4992873;28;101216;-37
2022/01/23 10:10:20;;;;;;;13.73;5.18;;;;;;;5.84;88.43;103806.09;4994074;28;99292;-36
2022/01/23 10:12:50;;;;;;;17.83;6.20;;;;;;;5.80;88.16;103799.81;4993808;28;96657;-37
2022/01/23 10:15:17;;;;;;;8.50;4.35;;;;;;;5.98;88.26;103823.25;4994696;28;96912;-37
2022/01/23 10:17:42;;;;;;;10.30;3.88;;;;;;;5.88;88.33;103808.81;4994164;28;100962;-36
2022/01/23 10:20:11;;;;;;;9.27;4.97;;;;;;;5.89;88.04;103799.88;4995698;28;97777;-36
2022/01/23 10:22:36;;;;;;;8.73;4.63;;;;;;;6.05;88.14;103829.56;4994484;28;96648;-36
2022/01/23 10:25:07;;;;;;;11.25;5.13;;;;;;;5.93;87.96;103804.38;4995969;28;96832;-36
2022/01/23 10:27:56;;;;;;;11.25;5.47;;;;;;;6.08;87.94;103818.84;4994126;28;102856;-37
2022/01/23 10:30:27;;;;;;;11.70;4.85;;;;;;;6.10;88.05;103820.66;4995601;28;97793;-36
2022/01/23 10:33:06;;;;;;;14.77;6.93;;;;;;;6.12;87.79;103820.63;4993961;28;96529;-36
2022/01/23 10:35:33;;;;;;;13.38;5.03;;;;;;;6.12;87.92;103823.31;4995709;28;96840;-36
2022/01/23 10:38:13;;;;;;;9.07;4.93;;;;;;;6.10;87.84;103815.25;4993958;28;100741;-36
2022/01/23 10:40:47;;;;;;;9.77;4.32;;;;;;;6.04;87.74;103801.75;4995416;28;97796;-37
2022/01/23 10:48:37;;;;;;;7.72;3.83;;;;;;;6.23;87.73;103823.38;4995363;28;97585;-37
2022/01/23 10:51:21;;;;;;;7.40;4.07;;;;;;;6.22;87.69;103822.50;4994118;28;101422;-36
2022/01/23 10:54:05;;;;;;;8.13;3.88;;;;;;;6.24;87.76;103820.69;4995587;28;96587;-36
2022/01/23 10:56:33;;;;;;;7.15;3.05;;;;;;;6.21;87.61;103812.59;4994151;28;96723;-37
2022/01/23 10:59:05;;;;;;;7.90;4.32;;;;;;;6.14;87.41;103789.25;4992868;28;101004;-36
2022/01/23 11:01:31;;;;;;;12.68;5.13;;;;;;;6.25;87.45;103805.47;4992848;28;100887;-37
2022/01/23 11:04:12;;;;;;;10.23;4.90;;;;;;;6.30;87.55;103807.28;4995294;28;96747;-36
2022/01/23 11:07:10;;;;;;;10.50;5.18;;;;;;;6.28;87.44;103802.78;4993607;28;96839;-37
2022/01/23 11:09:37;;;;;;;7.72;4.32;;;;;;;6.05;87.06;103768.56;4982786;28;97950;-37
2022/01/23 11:12:29;;;;;;;12.98;5.57;;;;;;;6.24;87.27;103788.38;4995228;28;97259;-37
2022/01/23 11:17:54;;;;;;;11.50;4.45;;;;;;;6.35;86.83;103804.59;4996096;28;96549;-37
2022/01/23 11:20:31;;;;;;;5.55;3.45;;;;;;;6.35;86.96;103797.41;4993362;28;100779;-37
2022/01/23 11:23:17;;;;;;;14.60;6.40;;;;;;;6.36;86.96;103799.22;4995016;28;97268;-36
2022/01/23 11:25:52;;;;;;;11.02;4.28;;;;;;;6.40;86.93;103796.53;4993174;28;96592;-37
2022/01/23 11:28:18;;;;;;;15.23;4.72;;;;;;;6.40;86.79;103788.47;4994906;28;96827;-37
2022/01/23 11:30:46;;;;;;;10.38;4.95;;;;;;;6.30;87.08;103766.88;4994632;28;98166;-37
2022/01/23 11:33:17;;;;;;;11.65;6.15;;;;;;;6.34;86.89;103759.72;4993266;28;100792;-37
2022/01/23 11:35:43;;;;;;;13.52;4.68;;;;;;;6.48;86.93;103783.97;4993332;28;96661;-36
2022/01/23 11:38:14;;;;;;;9.30;4.43;;;;;;;6.42;86.82;103767.84;4993564;28;96815;-37
2022/01/23 11:54:54;;;;;;;7.90;4.70;;;;;;;6.57;86.54;103779.53;4994140;28;96975;-37
2022/01/23 11:57:39;;;;;;;9.60;5.00;;;;;;;6.57;86.20;103778.63;4992990;28;96853;-37
2022/01/23 12:00:07;;;;;;;10.65;4.10;;;;;;;6.56;86.15;103774.16;4992997;28;96809;-37
2022/01/23 12:02:39;;;;;;;12.88;6.32;;;;;;;6.47;86.14;103739.13;4992203;28;100877;-37
2022/01/23 12:05:10;;;;;;;7.60;3.47;;;;;;;6.55;86.07;103754.41;4994316;28;97805;-37
2022/01/23 12:07:36;;;;;;;9.70;4.05;;;;;;;6.48;85.82;103740.91;4994424;28;96591;-37
2022/01/23 12:10:23;;;;;;;14.48;7.18;;;;;;;6.60;85.90;103762.47;4993341;28;96946;-37
2022/01/23 12:12:51;;;;;;;12.98;5.88;;;;;;;6.56;86.06;103747.22;4992603;28;101290;-36
2022/01/23 12:18:21;;;;;;;12.27;6.00;;;;;;;6.55;86.04;103737.31;4994403;28;96752;-36
2022/01/23 12:20:48;;;;;;;13.13;5.38;;;;;;;6.71;85.96;103758.00;4994341;28;96714;-36
2022/01/23 12:23:14;;;;;;;13.77;5.70;;;;;;;6.52;85.67;103718.47;4993784;28;100102;-37
2022/01/23 12:25:46;;;;;;;13.43;5.68;;;;;;;6.61;85.73;103737.34;4992291;28;101188;-37
2022/01/23 12:28:21;;;;;;;10.03;5.17;;;;;;;6.59;85.42;103728.38;4992765;28;96748;-37
2022/01/23 12:30:50;;;;;;;7.72;4.45;;;;;;;6.74;85.31;103749.03;4992767;28;96711;-36
2022/01/23 12:33:28;;;;;;;13.43;5.47;;;;;;;6.69;85.40;103740.94;4993634;28;100399;-36
2022/01/23 12:36:06;;;;;;;11.02;5.72;;;;;;;6.72;85.01;103751.75;4996455;28;99259;-36
2022/01/23 12:38:49;;;;;;;9.90;5.28;;;;;;;6.72;85.16;103740.97;4997681;28;96569;-36
2022/01/23 12:41:23;;;;;;;8.73;4.43;;;;;;;6.64;85.46;103726.56;4997741;28;96548;-36
2022/01/23 12:44:15;;;;;;;7.85;4.18;;;;;;;6.69;84.12;103737.34;4996929;28;97310;-37
2022/01/23 12:46:47;;;;;;;9.13;3.92;;;;;;;6.74;84.73;103744.53;4987776;28;97309;-37
2022/01/23 12:49:31;;;;;;;14.07;6.53;;;;;;;6.64;84.97;103715.81;4996317;28;96674;-36
2022/01/23 12:52:06;;;;;;;8.23;5.35;;;;;;;6.75;84.60;103743.66;4997429;28;96679;-36
2022/01/23 12:54:53;;;;;;;12.70;5.72;;;;;;;6.65;85.03;103723.00;4996808;28;98849;-36
2022/01/23 12:57:35;;;;;;;15.75;5.95;;;;;;;6.72;84.64;103738.28;4996502;28;97844;-36
2022/01/23 13:00:08;;;;;;;9.10;4.95;;;;;;;6.61;84.23;103715.81;4997331;28;96674;-37
2022/01/23 13:02:41;;;;;;;11.68;5.82;;;;;;;6.68;84.46;103724.81;4996933;28;96875;-36
2022/01/23 13:05:08;;;;;;;10.77;5.18;;;;;;;6.74;83.98;103744.53;4995411;28;101032;-36
2022/01/23 13:08:00;;;;;;;14.55;5.55;;;;;;;6.64;84.40;103717.59;4995184;28;100707;-37
2022/01/23 13:10:49;;;;;;;10.32;5.13;;;;;;;6.73;84.82;103733.78;4996176;28;96540;-37
2022/01/23 13:13:57;;;;;;;8.95;4.85;;;;;;;6.73;84.20;103745.44;4996762;28;96546;-37
2022/01/23 13:19:46;;;;;;;11.52;6.93;;;;;;;6.50;84.43;103693.34;4994754;28;97761;-37
2022/01/23 13:34:57;;;;;;;14.52;6.53;;;;;;;6.67;83.92;103737.34;4994319;28;96519;-36
2022/01/23 13:37:30;;;;;;;15.13;5.57;;;;;;;6.54;83.50;103714.00;4994532;28;100774;-36
2022/01/23 13:40:04;;;;;;;12.55;6.30;;;;;;;6.54;83.69;103703.22;4994917;28;98309;-36
2022/01/23 13:59:26;;;;;;;9.65;5.75;;;;;;;6.72;83.58;103722.13;4996252;28;97079;-36
2022/01/23 14:04:24;;;;;;;7.95;4.60;;;;;;;6.61;83.44;103707.72;4995800;28;96498;-36
2022/01/23 14:06:50;;;;;;;11.38;5.00;;;;;;;6.61;83.54;103694.25;4994749;28;96858;-36
2022/01/23 14:09:16;;;;;;;13.50;6.85;;;;;;;6.70;83.37;103718.50;4994271;28;101056;-36
2022/01/23 14:11:43;;;;;;;13.73;5.78;;;;;;;6.59;83.73;103693.34;4995805;28;97856;-36
2022/01/23 14:14:10;;;;;;;12.32;5.47;;;;;;;6.65;82.16;103712.22;4994640;28;96743;-36
2022/01/23 14:16:35;;;;;;;13.93;6.95;;;;;;;6.63;83.42;103711.31;4996053;28;96750;-36
2022/01/23 14:19:13;;;;;;;14.95;5.47;;;;;;;6.63;83.26;103710.44;4994765;28;124241;-36
2022/01/23 14:21:40;;;;;;;15.25;7.35;;;;;;;6.49;83.14;103683.47;4996051;28;97436;-36
2022/01/23 14:24:06;;;;;;;14.15;5.47;;;;;;;6.58;82.94;103705.94;4994590;28;96685;-36
2022/01/23 14:26:31;;;;;;;13.18;6.35;;;;;;;6.56;82.94;103702.34;4995930;28;96753;-36
2022/01/23 14:29:04;;;;;;;16.10;5.90;;;;;;;6.48;83.19;103687.94;4994253;28;127107;-36
2022/01/23 14:31:36;;;;;;;11.85;6.57;;;;;;;6.47;83.27;103688.84;4994152;28;101515;-36
2022/01/23 14:34:04;;;;;;;;;;;;;;;6.58;83.17;103722.09;4994872;28;96750;-36
2022/01/23 14:36:36;;;;;;;9.18;5.22;;;;;;;6.56;83.24;103709.53;4994409;28;96784;-36
2022/01/23 14:39:09;;;;;;;13.40;6.53;;;;;;;6.53;83.00;103701.41;4993936;28;100881;-36
2022/01/23 14:41:38;;;;;;;11.82;6.68;;;;;;;6.41;82.79;103690.63;4995384;28;97289;-36
2022/01/23 14:44:15;;;;;;;11.73;5.50;;;;;;;6.42;83.63;103679.88;4994098;28;96668;-36
2022/01/23 14:46:40;;;;;;;13.73;5.90;;;;;;;6.53;83.25;103707.72;4994511;28;96731;-36
2022/01/23 14:49:10;;;;;;;14.05;5.75;;;;;;;6.40;83.46;103689.75;4995316;28;97412;-36
2022/01/23 14:51:39;;;;;;;10.43;6.10;;;;;;;6.51;83.29;103709.50;4994751;28;97841;-36
2022/01/23 14:54:05;;;;;;;19.80;5.82;;;;;;;6.49;83.33;103708.59;4995290;28;96540;-36
2022/01/23 14:56:32;;;;;;;11.63;6.13;;;;;;;6.52;83.21;103715.78;4995515;28;96712;-36
2022/01/23 14:58:58;;;;;;;19.63;6.13;;;;;;;6.26;83.30;103661.91;4993002;28;100842;-36
2022/01/23 15:01:23;;;;;;;15.93;7.03;;;;;;;6.44;83.02;103694.25;4994093;28;98325;-36
2022/01/23 15:03:52;;;;;;;10.55;6.43;;;;;;;6.48;83.15;103698.72;4995531;28;96716;-36
2022/01/23 15:06:20;;;;;;;9.75;5.95;;;;;;;6.34;83.27;103679.88;4994967;28;96820;-36
2022/01/23 15:08:46;;;;;;;10.85;5.63;;;;;;;6.44;82.94;103696.03;4994819;28;97953;-36
2022/01/23 15:11:20;;;;;;;16.85;6.28;;;;;;;6.20;83.57;103654.72;4995361;28;97931;-36
2022/01/23 15:13:46;;;;;;;12.68;5.40;;;;;;;6.43;83.30;103695.13;4995187;28;96600;-36
2022/01/23 15:16:12;;;;;;;14.23;7.60;;;;;;;6.44;83.27;103690.66;4994715;28;99773;-36